Time;durP1;ratioP1;P1;durP2;ratioP2;P2;SDS_P1;SDS_P2;PMS_P1;PMS_P2;Temp;Humidity;BMP_temperature;BMP_pressure;BME280_temperature;BME280_humidity;BME280_pressure;Samples;Min_cycle;Max_cycle;Signal;HPM_P1;HPM_P2
2023/06/21 00:02:16;;;;;;;0.53;0.53;;;;;;;19.89;100.00;100008.84;4974579;28;20674;-76
2023/06/21 00:04:42;;;;;;;0.70;0.70;;;;;;;19.83;100.00;100004.03;4974448;28;20678;-76
2023/06/21 00:07:07;;;;;;;1.17;1.13;;;;;;;19.78;100.00;100007.16;4982720;28;20197;-75
2023/06/21 00:09:33;;;;;;;0.73;0.73;;;;;;;19.73;100.00;100002.78;4974161;28;20264;-75
2023/06/21 00:11:58;;;;;;;0.60;0.50;;;;;;;19.72;100.00;100003.16;4974193;28;20216;-76
2023/06/21 00:14:24;;;;;;;0.80;0.80;;;;;;;19.68;100.00;99991.25;4974127;28;20186;-75
2023/06/21 00:16:49;;;;;;;1.13;1.10;;;;;;;19.66;100.00;99980.53;4974009;28;20224;-76
2023/06/21 00:19:14;;;;;;;1.53;1.37;;;;;;;19.61;100.00;99972.56;4974019;28;20213;-75
2023/06/21 00:21:40;;;;;;;0.50;0.50;;;;;;;19.53;100.00;99965.38;4974021;28;20233;-75
2023/06/21 00:24:07;;;;;;;0.27;0.27;;;;;;;19.55;100.00;99963.84;4974508;28;20190;-76
2023/06/21 00:26:32;;;;;;;1.10;1.10;;;;;;;19.49;100.00;99965.31;4973992;28;20186;-75
2023/06/21 00:28:58;;;;;;;2.53;1.97;;;;;;;19.48;100.00;99960.16;4972470;28;20433;-75
2023/06/21 00:31:23;;;;;;;1.93;1.60;;;;;;;19.48;100.00;99960.97;4973937;28;20202;-75
2023/06/21 00:33:48;;;;;;;6.63;2.67;;;;;;;19.48;100.00;99974.81;4973897;28;20217;-75
2023/06/21 00:36:14;;;;;;;4.47;3.03;;;;;;;19.47;100.00;99986.28;4973919;28;20205;-75
2023/06/21 00:38:39;;;;;;;1.30;1.30;;;;;;;19.57;100.00;99975.31;4973557;28;20190;-76
2023/06/21 00:41:05;;;;;;;0.63;0.63;;;;;;;19.57;100.00;99972.56;4969241;28;20221;-75
2023/06/21 00:43:30;;;;;;;5.50;3.07;;;;;;;19.52;100.00;99970.09;4970299;28;20248;-75
2023/06/21 00:45:57;;;;;;;1.97;1.87;;;;;;;19.54;100.00;99967.78;4973700;28;20185;-76
2023/06/21 00:48:23;;;;;;;2.00;1.90;;;;;;;19.54;100.00;99967.78;4972157;28;20200;-75
2023/06/21 00:50:48;;;;;;;2.50;2.40;;;;;;;19.53;100.00;99960.63;4973559;28;20210;-75
2023/06/21 00:53:14;;;;;;;1.17;1.07;;;;;;;19.52;100.00;99960.97;4973502;28;20204;-75
2023/06/21 00:55:40;;;;;;;1.53;1.23;;;;;;;19.48;100.00;99960.97;4985973;28;20193;-75
2023/06/21 00:58:05;;;;;;;2.77;1.90;;;;;;;19.47;100.00;99966.88;4981317;28;20224;-76
2023/06/21 01:00:31;;;;;;;1.60;1.50;;;;;;;19.49;100.00;99964.53;4973510;28;20706;-75
2023/06/21 01:02:57;;;;;;;1.37;1.30;;;;;;;19.53;100.00;99977.25;4973458;28;20224;-75
2023/06/21 01:05:24;;;;;;;1.80;1.70;;;;;;;19.52;100.00;99977.59;4973462;28;20189;-76
2023/06/21 01:07:49;;;;;;;1.40;1.30;;;;;;;19.51;100.00;99979.56;4973207;28;20213;-75
2023/06/21 01:10:33;;;;;;;1.47;1.37;;;;;;;19.51;100.00;99979.56;4973102;28;20217;-75
2023/06/21 01:13:38;;;;;;;0.50;0.50;;;;;;;19.54;100.00;99984.41;4973382;28;20228;-75
2023/06/21 01:16:10;;;;;;;0.37;0.37;;;;;;;19.50;100.00;99978.00;4973176;28;20624;-75
2023/06/21 01:18:38;;;;;;;1.27;1.17;;;;;;;19.51;100.00;99976.00;4984998;28;20185;-75
2023/06/21 01:21:05;;;;;;;0.90;0.90;;;;;;;19.54;100.00;99984.41;4980841;28;20210;-75
2023/06/21 01:23:50;;;;;;;0.73;0.73;;;;;;;19.60;100.00;99977.31;4972131;28;20215;-75
2023/06/21 01:26:22;;;;;;;0.47;0.47;;;;;;;19.63;100.00;99974.97;4972861;28;20177;-76
2023/06/21 01:29:05;;;;;;;0.00;0.00;;;;;;;19.65;100.00;99972.59;4972864;28;20205;-75
2023/06/21 01:31:30;;;;;;;0.17;0.17;;;;;;;19.61;100.00;99975.34;4973252;28;20208;-75
2023/06/21 01:33:57;;;;;;;0.73;0.73;;;;;;;19.61;100.00;99969.81;4973090;28;20589;-75
2023/06/21 01:36:23;;;;;;;0.20;0.20;;;;;;;19.63;100.00;99978.53;4973003;28;20714;-75
2023/06/21 01:38:53;;;;;;;0.63;0.63;;;;;;;19.63;100.00;99983.28;4972676;28;20181;-75
2023/06/21 01:41:19;;;;;;;0.00;0.00;;;;;;;19.67;100.00;99975.78;4972939;28;20207;-75
2023/06/21 01:43:44;;;;;;;0.67;0.67;;;;;;;19.58;100.00;99976.13;4972977;28;20257;-75
2023/06/21 01:46:11;;;;;;;0.00;0.00;;;;;;;19.60;100.00;99979.31;4973036;28;20177;-75
2023/06/21 01:48:37;;;;;;;0.90;0.87;;;;;;;19.52;100.00;99980.38;4972627;28;20248;-75
2023/06/21 01:51:04;;;;;;;0.20;0.20;;;;;;;19.55;100.00;99982.44;4972856;28;20753;-75
2023/06/21 01:53:33;;;;;;;0.13;0.13;;;;;;;19.50;100.00;99979.97;4972865;28;20519;-75
2023/06/21 01:56:01;;;;;;;0.80;0.80;;;;;;;19.46;100.00;99974.41;4972813;28;20213;-74
2023/06/21 01:58:28;;;;;;;1.60;1.50;;;;;;;19.47;100.00;99980.75;4972626;28;20182;-75
2023/06/21 02:00:55;;;;;;;6.90;3.03;;;;;;;19.45;100.00;99975.59;4972731;28;20212;-75
2023/06/21 02:03:22;;;;;;;4.23;3.90;;;;;;;19.43;100.00;99983.47;4972829;28;20675;-74
2023/06/21 02:05:49;;;;;;;2.53;2.33;;;;;;;19.46;100.00;99974.41;4972848;28;20205;-75
2023/06/21 02:08:18;;;;;;;2.47;1.30;;;;;;;19.46;100.00;99982.72;4972522;28;20452;-74
2023/06/21 02:10:46;;;;;;;0.70;0.70;;;;;;;19.43;100.00;99985.47;4972607;28;20248;-75
2023/06/21 02:13:13;;;;;;;5.27;2.47;;;;;;;19.39;100.00;99996.53;4972755;28;20232;-75
2023/06/21 02:15:41;;;;;;;1.90;1.73;;;;;;;19.36;100.00;99997.25;4972536;28;20555;-75
2023/06/21 02:18:07;;;;;;;2.23;1.50;;;;;;;19.36;100.00;100002.00;4980582;28;20184;-75
2023/06/21 02:20:32;;;;;;;0.97;0.97;;;;;;;19.34;100.00;99999.63;4972489;28;20205;-75
2023/06/21 02:22:58;;;;;;;0.77;0.77;;;;;;;19.39;100.00;100009.56;4972650;28;20233;-75
2023/06/21 02:25:23;;;;;;;0.20;0.20;;;;;;;19.39;100.00;100023.44;4971355;28;20197;-75
2023/06/21 02:27:48;;;;;;;0.00;0.00;;;;;;;19.41;100.00;100026.63;4972492;28;20186;-75
2023/06/21 02:30:14;;;;;;;0.00;0.00;;;;;;;19.45;100.00;100021.88;4972261;28;20217;-75
2023/06/21 02:32:39;;;;;;;0.20;0.20;;;;;;;19.43;100.00;100029.78;4972493;28;20186;-75
2023/06/21 02:35:06;;;;;;;0.00;0.00;;;;;;;19.44;100.00;100031.38;4972560;28;20182;-75
2023/06/21 02:37:31;;;;;;;0.37;0.37;;;;;;;19.44;100.00;100034.16;4972369;28;20225;-75
2023/06/21 02:39:57;;;;;;;0.67;0.63;;;;;;;19.37;100.00;100051.50;4971044;28;20179;-75
2023/06/21 02:42:23;;;;;;;2.73;2.60;;;;;;;19.35;100.00;100053.84;4971620;28;20543;-74
2023/06/21 02:44:48;;;;;;;0.70;0.70;;;;;;;19.32;100.00;100055.41;4989736;28;20185;-75
2023/06/21 02:47:14;;;;;;;0.30;0.30;;;;;;;19.31;100.00;100066.88;4976023;28;20178;-75
2023/06/21 02:49:39;;;;;;;0.37;0.37;;;;;;;19.28;100.00;100079.50;4975513;28;20674;-75
2023/06/21 02:52:05;;;;;;;0.57;0.57;;;;;;;19.25;100.00;100090.56;4983617;28;20683;-75
2023/06/21 02:54:31;;;;;;;0.00;0.00;;;;;;;19.17;100.00;100086.09;4975822;28;20217;-75
2023/06/21 02:56:56;;;;;;;0.53;0.53;;;;;;;19.16;100.00;100090.03;4975596;28;20209;-75
2023/06/21 02:59:22;;;;;;;1.40;0.80;;;;;;;19.12;100.00;100084.47;4975554;28;20201;-75
2023/06/21 03:01:48;;;;;;;1.30;1.20;;;;;;;19.09;100.00;100085.22;4975477;28;20209;-75
2023/06/21 03:04:18;;;;;;;0.37;0.37;;;;;;;19.08;100.00;100089.16;4975643;28;20178;-75
2023/06/21 03:06:44;;;;;;;0.70;0.70;;;;;;;19.07;100.00;100086.75;4975539;28;20212;-75
2023/06/21 03:09:09;;;;;;;7.43;1.73;;;;;;;19.15;100.00;100094.00;4975326;28;20205;-75
2023/06/21 03:11:34;;;;;;;0.13;0.10;;;;;;;19.27;100.00;100096.50;4975375;28;20212;-75
2023/06/21 03:13:59;;;;;;;1.70;1.60;;;;;;;19.32;100.00;100099.72;4975461;28;20651;-75
2023/06/21 03:16:25;;;;;;;0.20;0.20;;;;;;;19.35;100.00;100094.59;4975376;28;20194;-74
2023/06/21 03:18:50;;;;;;;1.40;0.83;;;;;;;19.38;100.00;100107.69;4974998;28;20190;-75
2023/06/21 03:21:16;;;;;;;0.53;0.53;;;;;;;19.46;100.00;100104.63;4975252;28;20213;-75
2023/06/21 03:23:41;;;;;;;0.00;0.00;;;;;;;19.41;100.00;100106.97;4988021;28;20197;-75
2023/06/21 03:26:06;;;;;;;0.00;0.00;;;;;;;19.43;100.00;100122.03;4975271;28;20643;-75
2023/06/21 03:28:32;;;;;;;0.00;0.00;;;;;;;19.44;100.00;100131.94;4974929;28;20220;-75
2023/06/21 03:30:57;;;;;;;0.40;0.40;;;;;;;19.46;100.00;100131.56;4975076;28;20324;-75
2023/06/21 03:33:23;;;;;;;17.93;1.33;;;;;;;19.42;100.00;100130.72;4975098;28;20181;-75
2023/06/21 03:35:49;;;;;;;0.00;0.00;;;;;;;19.46;100.00;100135.13;4974939;28;20544;-75
2023/06/21 03:38:14;;;;;;;0.00;0.00;;;;;;;19.49;100.00;100139.91;4974840;28;20487;-75
2023/06/21 03:40:40;;;;;;;0.00;0.00;;;;;;;19.58;100.00;100145.97;4974929;28;20197;-75
2023/06/21 03:43:05;;;;;;;0.00;0.00;;;;;;;19.60;100.00;100151.94;4974853;28;20182;-76
2023/06/21 03:45:30;;;;;;;1.50;1.40;;;;;;;19.63;100.00;100157.88;4974975;28;20186;-75
2023/06/21 03:47:56;;;;;;;0.50;0.40;;;;;;;19.54;100.00;100167.31;4974477;28;20185;-75
2023/06/21 03:50:21;;;;;;;0.30;0.30;;;;;;;19.51;100.00;100181.88;4973881;28;20205;-75
2023/06/21 03:52:46;;;;;;;0.97;0.97;;;;;;;19.53;100.00;100192.59;4974659;28;20189;-75
2023/06/21 03:55:12;;;;;;;1.07;0.80;;;;;;;19.43;100.00;100188.53;4974734;28;20236;-75
2023/06/21 03:57:40;;;;;;;1.10;1.10;;;;;;;19.38;100.00;100188.84;4986692;28;20206;-75
2023/06/21 04:00:11;;;;;;;1.70;1.60;;;;;;;19.39;100.00;100182.16;4974341;28;20196;-75
2023/06/21 04:02:36;;;;;;;0.17;0.17;;;;;;;19.40;100.00;100189.28;4974411;28;20555;-75
2023/06/21 04:05:02;;;;;;;1.83;1.73;;;;;;;19.37;100.00;100205.84;4973207;28;20185;-75
2023/06/21 04:07:27;;;;;;;2.67;2.57;;;;;;;19.32;100.00;100210.53;4974418;28;20551;-76
2023/06/21 04:09:52;;;;;;;0.50;0.27;;;;;;;19.33;100.00;100216.88;4974244;28;20678;-76
2023/06/21 04:12:18;;;;;;;10.13;3.43;;;;;;;19.35;100.00;100214.53;4974404;28;20182;-75
2023/06/21 04:14:43;;;;;;;2.67;2.47;;;;;;;19.41;100.00;100212.25;4975019;28;20182;-75
2023/06/21 04:17:08;;;;;;;1.17;1.17;;;;;;;19.38;100.00;100216.53;4974187;28;20194;-75
2023/06/21 04:19:34;;;;;;;1.77;1.67;;;;;;;19.36;100.00;100212.56;4973889;28;20182;-75
2023/06/21 04:21:59;;;;;;;3.03;2.83;;;;;;;19.35;100.00;100222.84;4974051;28;20198;-75
2023/06/21 04:24:24;;;;;;;3.83;3.53;;;;;;;19.31;100.00;100216.47;4974223;28;20181;-75
2023/06/21 04:26:50;;;;;;;2.27;2.07;;;;;;;19.26;100.00;100220.38;4974085;28;20687;-75
2023/06/21 04:29:18;;;;;;;3.90;3.60;;;;;;;19.27;100.00;100218.41;4973823;28;20194;-75
2023/06/21 04:31:44;;;;;;;10.70;3.53;;;;;;;19.29;100.00;100218.81;4973836;28;20210;-75
2023/06/21 04:34:09;;;;;;;15.00;4.13;;;;;;;19.33;100.00;100222.44;4973963;28;20185;-75
2023/06/21 04:36:35;;;;;;;0.80;0.80;;;;;;;19.39;100.00;100220.94;4973770;28;20215;-75
2023/06/21 04:39:01;;;;;;;3.07;2.80;;;;;;;19.44;100.00;100225.34;4973729;28;20193;-75
2023/06/21 04:41:26;;;;;;;8.77;4.53;;;;;;;19.48;100.00;100226.97;4973788;28;20198;-75
2023/06/21 04:43:51;;;;;;;3.93;3.73;;;;;;;19.54;100.00;100225.50;4973735;28;20186;-75
2023/06/21 04:46:18;;;;;;;1.73;1.60;;;;;;;19.59;100.00;100230.72;4973843;28;20182;-75
2023/06/21 04:48:47;;;;;;;3.63;3.33;;;;;;;19.57;100.00;100230.28;4973887;28;20272;-74
2023/06/21 04:51:15;;;;;;;2.67;2.47;;;;;;;19.62;100.00;100229.16;4972473;28;20714;-75
2023/06/21 04:53:49;;;;;;;2.20;2.10;;;;;;;19.66;100.00;100229.19;4973592;28;20261;-75
2023/06/21 04:56:15;;;;;;;2.30;2.10;;;;;;;19.65;100.00;100227.59;4973509;28;20279;-75
2023/06/21 04:58:40;;;;;;;3.57;3.37;;;;;;;19.66;100.00;100245.81;4972082;28;20268;-75
2023/06/21 05:01:07;;;;;;;4.27;3.97;;;;;;;19.67;100.00;100252.97;4973197;28;20198;-75
2023/06/21 05:03:32;;;;;;;4.30;3.90;;;;;;;19.60;100.00;100237.06;4973494;28;20192;-75
2023/06/21 05:05:59;;;;;;;5.27;2.87;;;;;;;19.63;100.00;100252.13;4973471;28;20261;-75
2023/06/21 05:08:24;;;;;;;0.50;0.50;;;;;;;19.64;100.00;100253.72;4973222;28;20309;-75
2023/06/21 05:10:49;;;;;;;2.13;2.03;;;;;;;19.69;100.00;100250.63;4973244;28;20288;-75
2023/06/21 05:13:15;;;;;;;2.10;1.87;;;;;;;19.80;100.00;100251.53;4973367;28;20185;-75
2023/06/21 05:15:40;;;;;;;10.03;2.83;;;;;;;19.90;100.00;100250.88;4973192;28;20181;-74
2023/06/21 05:18:05;;;;;;;2.73;2.47;;;;;;;19.92;100.00;100237.41;4973082;28;20204;-75
2023/06/21 05:20:32;;;;;;;2.90;2.70;;;;;;;19.94;100.00;100239.81;4973343;28;20358;-75
2023/06/21 05:22:57;;;;;;;4.13;3.73;;;;;;;20.00;100.00;100257.72;4973129;28;20184;-74
2023/06/21 05:25:22;;;;;;;1.80;1.70;;;;;;;20.08;100.00;100242.72;4973262;28;20186;-75
2023/06/21 05:27:48;;;;;;;1.00;0.97;;;;;;;20.16;100.00;100242.44;4973187;28;20232;-75
2023/06/21 05:30:13;;;;;;;1.90;1.80;;;;;;;20.20;100.00;100257.13;4972704;28;20284;-75
2023/06/21 05:32:39;;;;;;;4.33;3.33;;;;;;;20.19;100.00;100272.19;4973090;28;20216;-75
2023/06/21 05:35:04;;;;;;;1.10;1.10;;;;;;;20.17;100.00;100265.44;4973116;28;20284;-75
2023/06/21 05:37:30;;;;;;;1.73;1.20;;;;;;;20.21;100.00;100275.38;4972924;28;20285;-75
2023/06/21 05:40:00;;;;;;;1.83;1.63;;;;;;;20.19;100.00;100286.06;4972978;28;20197;-75
2023/06/21 05:42:25;;;;;;;0.90;0.90;;;;;;;20.24;100.00;100284.09;4973063;28;20671;-75
2023/06/21 05:44:51;;;;;;;0.10;0.10;;;;;;;20.24;100.00;100298.78;4972955;28;20364;-75
2023/06/21 05:47:16;;;;;;;0.50;0.50;;;;;;;20.25;100.00;100300.38;4973053;28;20647;-75
2023/06/21 05:49:42;;;;;;;0.50;0.50;;;;;;;20.22;100.00;100292.81;4972473;28;20595;-75
2023/06/21 05:52:07;;;;;;;2.83;2.63;;;;;;;20.15;100.00;100298.31;4972845;28;20233;-75
2023/06/21 05:54:32;;;;;;;2.67;2.50;;;;;;;20.12;100.00;100299.88;4972892;28;20236;-75
2023/06/21 05:56:58;;;;;;;3.37;1.43;;;;;;;20.11;100.00;100298.28;4972832;28;20202;-75
2023/06/21 05:59:23;;;;;;;0.33;0.33;;;;;;;20.18;100.00;100306.66;4972534;28;20186;-75
2023/06/21 06:01:49;;;;;;;1.00;1.00;;;;;;;20.30;100.00;100313.94;4972751;28;20210;-75
2023/06/21 06:04:14;;;;;;;2.57;2.37;;;;;;;20.40;100.00;100329.09;4972834;28;20698;-75
2023/06/21 06:06:40;;;;;;;1.03;1.03;;;;;;;20.46;100.00;100319.25;4987834;28;20182;-75
2023/06/21 06:09:08;;;;;;;0.40;0.40;;;;;;;20.53;100.00;100327.66;4972460;28;20197;-75
2023/06/21 06:11:33;;;;;;;5.00;2.90;;;;;;;20.59;100.00;100328.13;4972606;28;20293;-75
2023/06/21 06:13:59;;;;;;;2.07;1.87;;;;;;;20.65;100.00;100332.13;4974887;28;20313;-75
2023/06/21 06:16:24;;;;;;;3.17;2.97;;;;;;;20.65;100.00;100332.94;4991460;28;20292;-75
2023/06/21 06:18:50;;;;;;;3.23;3.03;;;;;;;20.66;100.00;100342.06;4976174;28;20177;-75
2023/06/21 06:21:15;;;;;;;11.87;2.83;;;;;;;20.74;100.00;100344.53;4976365;28;20201;-75
2023/06/21 06:23:40;;;;;;;2.27;2.10;;;;;;;20.80;100.00;100339.41;4976378;28;20178;-75
2023/06/21 06:26:06;;;;;;;1.60;1.50;;;;;;;20.87;100.00;100347.81;4975341;28;20178;-75
2023/06/21 06:28:31;;;;;;;3.90;2.30;;;;;;;21.06;100.00;100336.47;4975840;28;20195;-75
2023/06/21 06:30:57;;;;;;;1.53;1.43;;;;;;;21.07;100.00;100340.84;4976148;28;20229;-75
2023/06/21 06:33:22;;;;;;;2.90;2.13;;;;;;;21.10;100.00;100340.06;4976277;28;20186;-75
2023/06/21 06:35:47;;;;;;;1.17;1.10;;;;;;;20.99;100.00;100338.41;4976099;28;20216;-75
2023/06/21 06:38:13;;;;;;;2.27;2.13;;;;;;;21.01;100.00;100339.59;4976038;28;20217;-77
2023/06/21 06:40:38;;;;;;;2.40;2.20;;;;;;;20.98;100.00;100354.28;4988303;28;20203;-75
2023/06/21 06:43:06;;;;;;;0.87;0.77;;;;;;;21.00;100.00;100365.00;4975948;28;20714;-76
2023/06/21 06:45:31;;;;;;;3.10;2.90;;;;;;;21.18;100.00;100363.16;4976329;28;20266;-76
2023/06/21 06:47:56;;;;;;;0.60;0.60;;;;;;;21.10;100.00;100367.03;4975625;28;20274;-76
2023/06/21 06:50:22;;;;;;;1.20;1.10;;;;;;;21.07;100.00;100368.63;4975869;28;20202;-75
2023/06/21 06:52:48;;;;;;;2.07;1.87;;;;;;;21.17;100.00;100363.53;4974591;28;20181;-75
2023/06/21 06:55:13;;;;;;;1.53;1.43;;;;;;;21.30;100.00;100360.09;4975898;28;20224;-75
2023/06/21 06:57:39;;;;;;;2.10;1.67;;;;;;;21.34;100.00;100363.69;4975521;28;20203;-75
2023/06/21 07:00:09;;;;;;;0.27;0.27;;;;;;;21.35;100.00;100370.84;4975584;28;20319;-75
2023/06/21 07:02:34;;;;;;;2.17;1.97;;;;;;;21.37;100.00;100376.81;4975572;28;20187;-76
2023/06/21 07:04:59;;;;;;;1.30;1.30;;;;;;;21.39;100.00;100380.00;4975772;28;20203;-75
2023/06/21 07:07:25;;;;;;;1.37;1.27;;;;;;;21.30;100.00;100376.78;4975672;28;20601;-75
2023/06/21 07:09:50;;;;;;;3.07;2.27;;;;;;;21.33;100.00;100387.13;4975334;28;20662;-76
2023/06/21 07:12:15;;;;;;;2.10;1.90;;;;;;;21.39;100.00;100387.53;4975498;28;20186;-75
2023/06/21 07:14:41;;;;;;;1.83;1.73;;;;;;;21.39;99.06;100387.53;4975463;28;20187;-75
2023/06/21 07:17:06;;;;;;;0.63;0.63;;;;;;;21.43;98.25;100391.16;4975359;28;20216;-75
2023/06/21 07:19:31;;;;;;;1.77;1.67;;;;;;;21.45;98.96;100399.13;4975217;28;20192;-75
2023/06/21 07:21:57;;;;;;;2.03;1.93;;;;;;;21.47;99.26;100396.75;4975271;28;20202;-75
2023/06/21 07:24:22;;;;;;;1.83;1.73;;;;;;;21.46;97.95;100401.50;4984535;28;20678;-76
2023/06/21 07:26:47;;;;;;;12.93;1.83;;;;;;;21.49;98.67;100402.72;4974764;28;20261;-75
2023/06/21 07:29:13;;;;;;;2.07;1.97;;;;;;;21.45;100.00;100405.47;4975090;28;20685;-75
2023/06/21 07:31:38;;;;;;;2.87;2.70;;;;;;;21.41;100.00;100409.41;4975071;28;20222;-76
2023/06/21 07:34:07;;;;;;;1.57;1.47;;;;;;;21.43;100.00;100413.41;4975275;28;20593;-76
2023/06/21 07:36:32;;;;;;;1.33;1.33;;;;;;;21.49;100.00;100403.50;4973776;28;20771;-75
2023/06/21 07:38:57;;;;;;;8.73;2.00;;;;;;;21.55;100.00;100409.50;4974770;28;20224;-75
2023/06/21 07:41:23;;;;;;;3.97;3.50;;;;;;;21.59;99.44;100413.91;4974760;28;20218;-75
2023/06/21 07:43:48;;;;;;;1.93;1.83;;;;;;;21.62;99.12;100410.34;4974860;28;20178;-75
2023/06/21 07:46:13;;;;;;;5.33;4.83;;;;;;;21.74;99.71;100417.59;4974908;28;20265;-76
2023/06/21 07:48:39;;;;;;;3.70;3.50;;;;;;;21.64;97.83;100407.19;4974537;28;20184;-75
2023/06/21 07:51:04;;;;;;;2.10;2.00;;;;;;;21.64;98.38;100413.53;4974690;28;20226;-75
2023/06/21 07:53:30;;;;;;;2.73;2.57;;;;;;;21.69;97.90;100412.38;4973533;28;20680;-75
2023/06/21 07:55:56;;;;;;;4.40;4.00;;;;;;;21.61;95.59;100407.97;4973243;28;20668;-76
2023/06/21 07:58:21;;;;;;;3.07;2.87;;;;;;;21.68;94.90;100410.78;4974932;28;20245;-76
2023/06/21 08:00:48;;;;;;;3.53;3.20;;;;;;;21.74;94.00;100412.03;4974539;28;20230;-76
2023/06/21 08:03:13;;;;;;;4.67;4.37;;;;;;;21.79;93.34;100405.28;4974820;28;20519;-76
2023/06/21 08:05:39;;;;;;;3.63;3.33;;;;;;;21.85;93.79;100412.91;4974511;28;20193;-75
2023/06/21 08:08:04;;;;;;;3.13;2.93;;;;;;;21.87;94.40;100404.16;4974263;28;20723;-75
2023/06/21 08:10:31;;;;;;;2.20;2.10;;;;;;;22.01;94.33;100409.00;4985419;28;20202;-76
2023/06/21 08:12:57;;;;;;;2.17;2.07;;;;;;;22.09;92.20;100407.88;4974329;28;20175;-76
2023/06/21 08:15:23;;;;;;;1.13;0.90;;;;;;;22.29;92.52;100400.81;4974515;28;20181;-75
2023/06/21 08:17:49;;;;;;;1.20;1.20;;;;;;;22.47;91.03;100400.88;4974013;28;20762;-76
2023/06/21 08:20:14;;;;;;;0.00;0.00;;;;;;;22.43;91.67;100405.63;4974117;28;20584;-76
2023/06/21 08:22:40;;;;;;;7.13;2.50;;;;;;;22.56;90.08;100396.50;4974169;28;20186;-76
2023/06/21 08:25:05;;;;;;;4.03;2.87;;;;;;;22.70;89.28;100403.28;4974194;28;20260;-76
2023/06/21 08:27:31;;;;;;;3.50;3.30;;;;;;;22.66;88.71;100391.34;4972763;28;20547;-76
2023/06/21 08:29:56;;;;;;;3.50;3.20;;;;;;;22.66;86.99;100397.72;4973683;28;20722;-75
2023/06/21 08:32:21;;;;;;;2.17;2.07;;;;;;;22.62;87.21;100394.16;4974204;28;20195;-75
2023/06/21 08:34:47;;;;;;;4.40;4.10;;;;;;;22.68;88.15;100391.75;4973966;28;20535;-76
2023/06/21 08:37:12;;;;;;;5.50;3.47;;;;;;;22.75;87.02;100402.94;4974257;28;20205;-75
2023/06/21 08:39:37;;;;;;;2.97;2.77;;;;;;;22.78;85.63;100393.78;4973612;28;20231;-75
2023/06/21 08:42:03;;;;;;;2.00;1.80;;;;;;;22.93;86.49;100392.63;4973739;28;20261;-75
2023/06/21 08:44:29;;;;;;;4.77;4.37;;;;;;;22.88;85.60;100400.59;4974017;28;20232;-76
2023/06/21 08:46:56;;;;;;;2.47;2.27;;;;;;;22.83;84.95;100399.78;4988069;28;20216;-75
2023/06/21 08:49:25;;;;;;;2.67;2.00;;;;;;;22.98;86.74;100405.38;4973527;28;20182;-76
2023/06/21 08:51:53;;;;;;;3.67;3.37;;;;;;;23.05;86.04;100406.19;4973595;28;20204;-76
2023/06/21 08:54:24;;;;;;;2.40;1.57;;;;;;;23.11;85.00;100410.16;4973674;28;20267;-76
2023/06/21 08:56:55;;;;;;;1.73;1.63;;;;;;;23.17;84.19;100410.56;4973572;28;20268;-76
2023/06/21 08:59:27;;;;;;;7.70;3.83;;;;;;;23.13;83.82;100407.75;4983379;28;20220;-76
2023/06/21 09:02:00;;;;;;;3.20;2.90;;;;;;;23.14;83.52;100414.94;4973442;28;20198;-75
2023/06/21 09:04:28;;;;;;;6.53;2.30;;;;;;;23.11;82.88;100412.16;4972312;28;20179;-76
2023/06/21 09:06:54;;;;;;;2.30;2.10;;;;;;;23.17;82.71;100418.94;4972314;28;20548;-75
2023/06/21 09:09:23;;;;;;;9.57;4.27;;;;;;;23.26;83.66;100438.03;4973261;28;20188;-76
2023/06/21 09:11:51;;;;;;;3.53;3.23;;;;;;;23.37;83.73;100428.47;4973252;28;20205;-76
2023/06/21 09:14:18;;;;;;;4.07;3.60;;;;;;;23.38;82.60;100427.28;4973367;28;20212;-76
2023/06/21 09:16:46;;;;;;;3.27;3.07;;;;;;;23.42;82.43;100435.66;4973169;28;20667;-76
2023/06/21 09:19:12;;;;;;;2.67;2.47;;;;;;;23.57;83.00;100431.69;4973163;28;20177;-76
2023/06/21 09:21:40;;;;;;;1.10;1.10;;;;;;;23.57;82.38;100426.09;4972978;28;20236;-75
2023/06/21 09:24:06;;;;;;;5.03;4.63;;;;;;;23.36;80.84;100418.53;4973283;28;20189;-76
2023/06/21 09:26:31;;;;;;;3.03;2.83;;;;;;;23.29;82.78;100437.22;4973430;28;20181;-76
2023/06/21 09:28:56;;;;;;;5.73;3.17;;;;;;;23.20;82.18;100442.44;4971414;28;20320;-75
2023/06/21 09:31:22;;;;;;;2.03;1.93;;;;;;;23.25;82.85;100444.81;4973038;28;20220;-76
2023/06/21 09:33:49;;;;;;;1.43;1.40;;;;;;;23.45;82.68;100443.22;4973152;28;20184;-76
2023/06/21 09:36:14;;;;;;;2.93;2.73;;;;;;;23.56;81.69;100435.63;4972962;28;20204;-76
2023/06/21 09:38:40;;;;;;;2.30;2.20;;;;;;;23.70;79.26;100443.22;4972812;28;20173;-76
2023/06/21 09:41:07;;;;;;;5.07;2.97;;;;;;;23.73;77.21;100420.91;4972942;28;20541;-76
2023/06/21 09:43:32;;;;;;;3.40;3.20;;;;;;;23.69;78.04;100425.69;4973061;28;20208;-75
2023/06/21 09:46:07;;;;;;;4.57;4.10;;;;;;;23.66;77.17;100423.72;4972921;28;20647;-77
2023/06/21 09:48:35;;;;;;;0.57;0.57;;;;;;;23.70;78.20;100435.66;4974164;28;20181;-76
2023/06/21 09:51:10;;;;;;;2.73;2.53;;;;;;;23.70;78.55;100440.44;4976926;28;20197;-76
2023/06/21 09:53:36;;;;;;;13.93;2.33;;;;;;;23.64;78.94;100445.63;4976996;28;20617;-75
2023/06/21 09:56:02;;;;;;;2.00;1.80;;;;;;;23.77;79.70;100445.22;4976806;28;20206;-76
2023/06/21 09:58:31;;;;;;;1.27;1.27;;;;;;;23.88;77.70;100444.00;4976617;28;20674;-76
2023/06/21 10:00:56;;;;;;;2.50;2.37;;;;;;;23.94;78.43;100438.81;4976655;28;20210;-76
2023/06/21 10:03:23;;;;;;;3.90;3.53;;;;;;;23.81;77.28;100435.63;4976713;28;20189;-76
2023/06/21 10:05:58;;;;;;;0.37;0.37;;;;;;;23.73;77.28;100439.66;4976715;28;20186;-75
2023/06/21 10:08:28;;;;;;;0.80;0.80;;;;;;;23.82;78.38;100442.81;4976517;28;20190;-76
2023/06/21 10:10:54;;;;;;;0.50;0.50;;;;;;;23.94;77.02;100447.97;4976708;28;20205;-76
2023/06/21 10:13:26;;;;;;;0.33;0.33;;;;;;;24.19;75.99;100441.53;4976624;28;20553;-77
2023/06/21 10:15:53;;;;;;;1.40;1.00;;;;;;;24.28;74.66;100447.47;4990603;28;20186;-76
2023/06/21 10:18:19;;;;;;;0.93;0.93;;;;;;;24.46;73.20;100450.25;4976258;28;20208;-76
2023/06/21 10:20:49;;;;;;;0.37;0.37;;;;;;;24.66;71.68;100442.16;4976386;28;20202;-75
2023/06/21 10:23:15;;;;;;;0.40;0.40;;;;;;;24.85;72.19;100445.22;4976783;28;20193;-75
2023/06/21 10:25:44;;;;;;;1.73;1.63;;;;;;;24.90;70.55;100444.81;4976362;28;20178;-76
2023/06/21 10:28:14;;;;;;;0.10;0.10;;;;;;;24.71;69.87;100444.50;4975847;28;20182;-76
2023/06/21 10:30:41;;;;;;;0.30;0.13;;;;;;;24.54;70.11;100451.78;4976252;28;20675;-76
2023/06/21 10:33:09;;;;;;;3.00;2.73;;;;;;;24.44;70.83;100447.03;4976270;28;20186;-76
2023/06/21 10:35:42;;;;;;;1.10;1.10;;;;;;;24.28;71.96;100453.84;4976435;28;20192;-77
2023/06/21 10:38:21;;;;;;;2.97;2.77;;;;;;;24.31;71.45;100452.28;4975928;28;21030;-76
2023/06/21 10:40:49;;;;;;;2.67;2.57;;;;;;;24.40;70.84;100449.06;4975933;28;20580;-76
2023/06/21 10:43:15;;;;;;;0.97;0.97;;;;;;;24.47;70.72;100454.63;4976073;28;20227;-76
2023/06/21 10:45:41;;;;;;;4.17;3.77;;;;;;;24.46;69.13;100450.25;4975959;28;20590;-76
2023/06/21 10:48:08;;;;;;;3.47;3.27;;;;;;;24.44;69.23;100456.19;4983728;28;20182;-76
2023/06/21 10:50:33;;;;;;;0.93;0.93;;;;;;;24.68;69.48;100464.88;4975870;28;20214;-76
2023/06/21 10:53:01;;;;;;;1.40;1.33;;;;;;;24.89;69.71;100454.41;4974505;28;20201;-76
2023/06/21 10:55:27;;;;;;;0.27;0.27;;;;;;;25.18;69.03;100457.03;4975993;28;20651;-76
2023/06/21 10:57:54;;;;;;;2.00;1.90;;;;;;;25.40;68.26;100461.25;4975618;28;20208;-76
2023/06/21 11:00:22;;;;;;;4.03;3.67;;;;;;;25.55;66.67;100463.91;4975270;28;20697;-76
2023/06/21 11:02:48;;;;;;;3.37;3.13;;;;;;;25.63;66.63;100463.44;4975677;28;20184;-77
2023/06/21 11:05:22;;;;;;;3.33;3.13;;;;;;;25.18;65.96;100469.00;4975675;28;20642;-76
2023/06/21 11:08:11;;;;;;;6.47;3.90;;;;;;;24.96;66.80;100464.72;4975474;28;20206;-76
2023/06/21 11:10:41;;;;;;;3.43;2.67;;;;;;;25.09;65.25;100465.88;4975424;28;20567;-76
2023/06/21 11:13:07;;;;;;;0.83;0.83;;;;;;;25.33;65.79;100480.88;4975919;28;20534;-76
2023/06/21 11:15:33;;;;;;;1.93;1.83;;;;;;;25.51;65.43;100467.53;4975533;28;20181;-76
2023/06/21 11:18:06;;;;;;;3.03;2.83;;;;;;;25.59;66.19;100476.66;4975148;28;20201;-76
2023/06/21 11:20:42;;;;;;;4.00;3.70;;;;;;;25.68;64.89;100479.00;4975338;28;20300;-76